Saint-Honore-De-Temiscouata, Canada
Current Conditions -  °F | °C
As of 7:53 PM on Saturday 25 Oct 2014 (Local Time) from KFVE Reporting Station
Overcast Overcast  
Wind Chill: 37°   Ceiling: 400
Heat Index: 40°   Visibility: 10mi
Dew Point: 39°   Wind: 5mph
Humidity: 97%   Direction: 120°ESE
Pressure: 29.52"   Gusts: NA
Location:  47.72°N, 69.13°W
Report Text: KFVE 252353Z AUTO 12004KT 10SM OVC004 04/04 A2952 RMK AO2 SLP000 60000 T00440039 10061 20044 58004
Loading
Personal Weather Stations






























Interactive Weather Map
Tropical Storm Tracking
New forecast layout! Learn more

10-Day Weather Forecast

Advertisements
Track Severe Weather on mobile